Time;durP1;ratioP1;P1;durP2;ratioP2;P2;SDS_P1;SDS_P2;PMS_P1;PMS_P2;Temp;Humidity;BMP_temperature;BMP_pressure;BME280_temperature;BME280_humidity;BME280_pressure;Samples;Min_cycle;Max_cycle;Signal;HPM_P1;HPM_P2
2021/04/04 00:01:07;;;;;;;5.70;2.40;;;6.80;53.20;;;;;;4992128;28;20026;-69
2021/04/04 00:03:32;;;;;;;4.95;2.17;;;6.80;53.30;;;;;;5011364;28;20493;-69
2021/04/04 00:05:58;;;;;;;3.88;2.33;;;6.70;53.40;;;;;;5012177;28;20486;-69
2021/04/04 00:08:24;;;;;;;3.92;2.33;;;6.70;53.70;;;;;;5027279;28;20436;-69
2021/04/04 00:10:50;;;;;;;5.05;2.47;;;6.70;54.00;;;;;;5011559;28;20038;-69
2021/04/04 00:13:15;;;;;;;5.47;2.30;;;6.70;54.10;;;;;;5026471;28;20377;-69
2021/04/04 00:15:41;;;;;;;4.47;2.47;;;6.60;54.10;;;;;;5012235;28;20465;-69
2021/04/04 00:18:07;;;;;;;5.68;2.17;;;6.60;54.10;;;;;;5024342;28;20478;-68
2021/04/04 00:20:33;;;;;;;5.68;2.20;;;6.60;54.10;;;;;;5021995;28;20034;-68
2021/04/04 00:22:59;;;;;;;5.30;2.50;;;6.60;54.30;;;;;;5026893;28;20026;-68
2021/04/04 00:25:24;;;;;;;5.18;2.63;;;6.70;54.30;;;;;;5012013;28;20029;-68
2021/04/04 00:27:50;;;;;;;6.10;3.08;;;6.70;54.50;;;;;;5023632;28;20069;-68
2021/04/04 00:30:18;;;;;;;5.95;2.80;;;6.70;54.40;;;;;;5012956;28;20029;-68
2021/04/04 00:32:43;;;;;;;4.55;2.33;;;6.60;54.40;;;;;;5010824;28;20121;-68
2021/04/04 00:35:16;;;;;;;4.45;2.28;;;6.60;54.40;;;;;;5011024;28;20049;-68
2021/04/04 00:37:42;;;;;;;5.65;2.60;;;6.60;54.70;;;;;;4998755;28;20038;-68
2021/04/04 00:40:10;;;;;;;6.18;2.97;;;6.60;54.70;;;;;;4997396;28;20038;-68
2021/04/04 00:42:35;;;;;;;5.38;2.58;;;6.60;54.80;;;;;;5015442;28;20029;-68
2021/04/04 00:45:01;;;;;;;6.63;3.10;;;6.60;55.00;;;;;;5018825;28;20359;-68
2021/04/04 00:47:26;;;;;;;6.07;2.88;;;6.60;55.00;;;;;;5014019;28;20022;-68
2021/04/04 00:49:52;;;;;;;5.07;3.10;;;6.60;55.30;;;;;;5010930;28;20034;-68
2021/04/04 00:52:18;;;;;;;5.25;2.83;;;6.60;55.50;;;;;;5018874;28;20091;-68
2021/04/04 00:54:43;;;;;;;6.35;3.15;;;6.60;56.00;;;;;;5031347;28;20481;-68
2021/04/04 00:57:10;;;;;;;5.03;3.03;;;6.60;55.50;;;;;;5028138;28;20033;-68
2021/04/04 00:59:36;;;;;;;5.43;3.17;;;6.50;55.50;;;;;;5031193;28;20132;-68
2021/04/04 01:02:01;;;;;;;7.78;3.60;;;6.50;55.70;;;;;;5026544;28;20037;-68
2021/04/04 01:04:27;;;;;;;5.35;3.22;;;6.50;55.90;;;;;;5008938;28;20033;-68
2021/04/04 01:06:52;;;;;;;6.80;3.50;;;6.40;56.00;;;;;;4993515;28;20494;-68
2021/04/04 01:09:20;;;;;;;8.02;3.83;;;6.40;56.10;;;;;;5011543;28;20018;-68
2021/04/04 01:12:09;;;;;;;8.27;3.90;;;6.40;56.30;;;;;;5010297;28;20087;-68
2021/04/04 01:14:43;;;;;;;9.73;4.32;;;6.40;56.50;;;;;;4993192;28;20618;-68
2021/04/04 01:17:11;;;;;;;7.82;3.90;;;6.40;56.70;;;;;;5026215;28;20033;-68
2021/04/04 01:20:08;;;;;;;9.60;5.38;;;6.40;56.80;;;;;;5011436;28;20033;-69
2021/04/04 01:23:03;;;;;;;6.40;3.80;;;6.40;56.90;;;;;;5010923;28;20109;-69
2021/04/04 01:25:37;;;;;;;;;;;6.40;57.00;;;;;;5018195;28;20517;-68
2021/04/04 01:28:08;;;;;;;6.25;3.83;;;6.40;56.60;;;;;;5025068;28;20361;-69
2021/04/04 01:30:36;;;;;;;8.13;3.97;;;6.40;56.80;;;;;;5019542;28;20083;-69
2021/04/04 01:33:03;;;;;;;6.43;4.15;;;6.40;57.00;;;;;;5018902;28;20065;-69
2021/04/04 01:35:31;;;;;;;5.88;3.45;;;6.40;57.20;;;;;;5013940;28;20040;-69
2021/04/04 01:37:59;;;;;;;6.60;4.07;;;6.40;57.20;;;;;;5021142;28;20030;-69
2021/04/04 01:40:26;;;;;;;8.82;5.22;;;6.30;57.50;;;;;;5016923;28;20088;-69
2021/04/04 01:42:55;;;;;;;8.35;4.28;;;6.40;57.60;;;;;;5022414;28;20029;-69
2021/04/04 01:45:22;;;;;;;6.65;4.00;;;6.40;57.70;;;;;;5015641;28;20030;-69
2021/04/04 01:47:49;;;;;;;6.93;4.15;;;6.40;57.60;;;;;;5023537;28;20029;-69
2021/04/04 01:50:15;;;;;;;6.15;4.18;;;6.30;57.60;;;;;;5014381;28;20034;-69
2021/04/04 01:52:42;;;;;;;7.30;4.50;;;6.30;57.80;;;;;;5021129;28;20036;-69
2021/04/04 01:55:09;;;;;;;7.30;4.28;;;6.30;57.70;;;;;;5013819;28;20156;-69
2021/04/04 01:57:35;;;;;;;6.35;3.97;;;6.30;57.90;;;;;;5014118;28;20072;-69
2021/04/04 02:00:07;;;;;;;5.43;3.75;;;6.30;57.90;;;;;;5012582;28;20458;-69
2021/04/04 02:02:33;;;;;;;7.35;3.67;;;6.30;57.80;;;;;;5019248;28;20120;-69
2021/04/04 02:05:01;;;;;;;6.10;3.38;;;6.20;57.70;;;;;;5012563;28;20030;-69
2021/04/04 02:07:28;;;;;;;8.27;3.58;;;6.30;57.80;;;;;;5006816;28;20026;-69
2021/04/04 02:09:54;;;;;;;7.38;3.65;;;6.20;57.70;;;;;;5013777;28;20049;-69
2021/04/04 02:12:20;;;;;;;7.43;4.10;;;6.20;57.80;;;;;;5012563;28;20096;-69
2021/04/04 02:14:48;;;;;;;6.47;3.88;;;6.20;57.90;;;;;;5013883;28;20097;-69
2021/04/04 02:17:15;;;;;;;7.03;3.80;;;6.20;57.80;;;;;;5018469;28;20029;-69
2021/04/04 02:19:41;;;;;;;6.13;3.58;;;6.20;57.70;;;;;;5013932;28;20058;-69
2021/04/04 02:22:06;;;;;;;8.55;4.20;;;6.20;57.60;;;;;;5011833;28;20026;-69
2021/04/04 02:24:33;;;;;;;6.47;3.60;;;6.20;57.60;;;;;;5013107;28;20035;-69
2021/04/04 02:26:59;;;;;;;6.93;3.80;;;6.20;57.70;;;;;;5011882;28;20025;-69
2021/04/04 02:29:24;;;;;;;6.93;3.97;;;6.20;57.80;;;;;;5014065;28;20104;-69
2021/04/04 02:32:00;;;;;;;7.00;4.15;;;6.10;57.80;;;;;;4991888;28;20150;-69
2021/04/04 02:34:37;;;;;;;7.38;3.63;;;6.20;57.90;;;;;;4994478;28;20026;-69
2021/04/04 02:37:05;;;;;;;6.72;3.95;;;6.10;57.90;;;;;;4999247;28;20030;-69
2021/04/04 02:39:37;;;;;;;5.03;3.53;;;6.10;58.00;;;;;;4997116;28;20033;-69
2021/04/04 02:42:04;;;;;;;5.03;3.40;;;6.10;58.50;;;;;;5013070;28;20092;-69
2021/04/04 02:44:31;;;;;;;6.50;3.63;;;6.10;58.60;;;;;;5013215;28;20057;-69
2021/04/04 02:47:05;;;;;;;7.40;3.45;;;6.10;58.50;;;;;;5012231;28;20108;-69
2021/04/04 02:49:33;;;;;;;6.90;3.80;;;6.10;58.50;;;;;;5013363;28;20042;-69
2021/04/04 02:52:02;;;;;;;6.53;3.60;;;6.10;58.40;;;;;;5011080;28;20038;-69
2021/04/04 02:54:30;;;;;;;5.97;3.70;;;6.10;58.40;;;;;;5033117;28;20032;-67
2021/04/04 02:56:57;;;;;;;7.65;4.00;;;6.10;58.50;;;;;;5014156;28;20108;-67
2021/04/04 02:59:25;;;;;;;8.48;3.80;;;6.10;58.50;;;;;;5012814;28;20049;-67
2021/04/04 03:01:53;;;;;;;7.10;3.90;;;6.10;58.70;;;;;;5011404;28;20080;-66
2021/04/04 03:04:21;;;;;;;6.22;4.30;;;6.10;58.70;;;;;;4994943;28;20033;-66
2021/04/04 03:06:49;;;;;;;7.10;3.72;;;6.10;58.70;;;;;;4994245;28;20026;-66
2021/04/04 03:09:17;;;;;;;6.30;4.00;;;6.10;58.70;;;;;;4994945;28;20026;-66
2021/04/04 03:11:44;;;;;;;6.65;3.50;;;6.00;58.70;;;;;;5024966;28;20044;-67
2021/04/04 03:14:11;;;;;;;8.15;3.70;;;6.00;58.80;;;;;;5021124;28;20022;-67
2021/04/04 03:16:37;;;;;;;7.85;4.13;;;6.10;58.90;;;;;;5024411;28;20030;-67
2021/04/04 03:19:04;;;;;;;4.85;3.47;;;6.00;58.80;;;;;;5032287;28;20021;-67
2021/04/04 03:21:34;;;;;;;8.40;3.97;;;6.00;58.80;;;;;;5025284;28;20399;-66
2021/04/04 03:24:00;;;;;;;7.43;3.97;;;6.00;59.00;;;;;;4998140;28;20040;-67
2021/04/04 03:26:27;;;;;;;7.88;3.90;;;6.00;59.00;;;;;;5019592;28;20029;-67
2021/04/04 03:28:53;;;;;;;5.45;3.58;;;6.00;59.00;;;;;;5032527;28;20036;-67
2021/04/04 03:31:19;;;;;;;5.72;3.90;;;6.10;59.00;;;;;;5024996;28;20060;-67
2021/04/04 03:33:46;;;;;;;4.60;3.00;;;6.00;59.00;;;;;;5030129;28;20118;-67
2021/04/04 03:36:16;;;;;;;4.82;3.33;;;6.00;58.90;;;;;;5004046;28;20417;-67
2021/04/04 03:38:44;;;;;;;7.25;4.10;;;6.00;58.90;;;;;;5031429;28;20381;-67
2021/04/04 03:41:11;;;;;;;5.57;3.20;;;6.00;59.00;;;;;;5003244;28;20037;-66
2021/04/04 03:43:38;;;;;;;5.70;3.72;;;5.90;58.90;;;;;;5032240;28;20022;-66
2021/04/04 03:46:07;;;;;;;5.63;3.53;;;5.90;59.20;;;;;;5018935;28;20037;-66
2021/04/04 03:48:34;;;;;;;7.10;3.80;;;5.90;59.70;;;;;;5029775;28;20139;-66
2021/04/04 03:51:03;;;;;;;6.15;3.38;;;5.90;59.10;;;;;;5002354;28;20188;-66
2021/04/04 03:53:29;;;;;;;4.25;2.92;;;5.90;59.00;;;;;;5005464;28;20034;-66
2021/04/04 03:55:59;;;;;;;4.90;3.03;;;5.90;59.00;;;;;;5007212;28;20033;-66
2021/04/04 03:58:27;;;;;;;5.05;3.20;;;5.90;59.20;;;;;;5031682;28;20060;-66
2021/04/04 04:00:55;;;;;;;4.85;3.50;;;5.90;59.20;;;;;;5016665;28;20430;-67
2021/04/04 04:03:22;;;;;;;6.03;3.55;;;5.90;59.20;;;;;;5004431;28;20076;-66
2021/04/04 04:05:49;;;;;;;4.90;3.35;;;5.90;59.20;;;;;;5023581;28;20025;-66
2021/04/04 04:08:16;;;;;;;6.00;3.58;;;5.90;59.20;;;;;;5030461;28;20023;-66
2021/04/04 04:10:43;;;;;;;6.20;3.45;;;6.00;59.10;;;;;;5004389;28;20041;-66
2021/04/04 04:13:09;;;;;;;5.63;3.80;;;6.00;59.00;;;;;;4994587;28;20025;-66
2021/04/04 04:15:35;;;;;;;6.38;3.08;;;6.00;59.00;;;;;;5010837;28;20032;-66
2021/04/04 04:18:05;;;;;;;7.80;3.80;;;6.00;58.90;;;;;;5010725;28;20122;-66
2021/04/04 04:20:32;;;;;;;6.85;3.83;;;6.00;58.90;;;;;;5026397;28;20084;-66
2021/04/04 04:22:58;;;;;;;8.48;3.97;;;6.00;59.00;;;;;;5030517;28;20029;-66
2021/04/04 04:25:26;;;;;;;7.07;3.50;;;5.90;59.00;;;;;;5013606;28;20025;-66
2021/04/04 04:27:52;;;;;;;7.60;3.58;;;5.90;58.90;;;;;;5031267;28;20029;-66
2021/04/04 04:30:18;;;;;;;6.38;3.08;;;5.90;58.90;;;;;;5012833;28;20037;-66
2021/04/04 04:32:45;;;;;;;6.53;3.60;;;5.90;58.90;;;;;;5029638;28;20474;-66
2021/04/04 04:35:11;;;;;;;6.82;3.60;;;5.90;58.90;;;;;;5011219;28;20544;-66
2021/04/04 04:37:39;;;;;;;6.47;4.03;;;5.90;58.90;;;;;;5031177;28;20498;-67
2021/04/04 04:40:07;;;;;;;7.60;4.00;;;5.90;59.10;;;;;;4993951;28;20022;-67
2021/04/04 04:42:35;;;;;;;12.63;3.70;;;5.90;59.10;;;;;;5011743;28;20034;-68
2021/04/04 04:45:02;;;;;;;5.53;3.70;;;5.90;59.10;;;;;;5013783;28;20034;-67
2021/04/04 04:47:28;;;;;;;5.97;3.50;;;5.90;59.20;;;;;;5011260;28;20022;-67
2021/04/04 04:49:54;;;;;;;5.68;3.22;;;5.90;59.10;;;;;;4993922;28;20085;-68
2021/04/04 04:52:23;;;;;;;5.85;3.63;;;5.90;59.10;;;;;;5009629;28;20037;-69
2021/04/04 04:54:48;;;;;;;4.72;3.30;;;5.90;59.20;;;;;;5011179;28;20108;-69
2021/04/04 04:57:15;;;;;;;7.13;3.55;;;5.90;59.10;;;;;;5031116;28;20478;-69
2021/04/04 04:59:40;;;;;;;8.50;3.65;;;5.90;59.20;;;;;;5025179;28;20049;-69
2021/04/04 05:02:08;;;;;;;6.97;3.72;;;5.90;59.20;;;;;;5031043;28;20030;-67
2021/04/04 05:04:34;;;;;;;7.95;3.60;;;5.90;59.40;;;;;;5020415;28;20026;-68
2021/04/04 05:07:00;;;;;;;5.88;3.53;;;5.90;59.30;;;;;;5029928;28;20040;-66
2021/04/04 05:09:28;;;;;;;6.78;3.72;;;5.90;59.30;;;;;;5015743;28;20069;-66
2021/04/04 05:11:54;;;;;;;5.45;3.63;;;5.90;59.20;;;;;;4998602;28;20443;-67
2021/04/04 05:14:20;;;;;;;6.15;3.80;;;5.90;59.10;;;;;;5016517;28;20057;-67
2021/04/04 05:16:47;;;;;;;6.28;3.28;;;5.90;59.20;;;;;;5012044;28;20085;-67
2021/04/04 05:19:13;;;;;;;6.38;3.63;;;6.00;59.20;;;;;;5014540;28;20029;-67
2021/04/04 05:21:42;;;;;;;5.93;3.42;;;6.00;59.20;;;;;;5000136;28;20121;-67
2021/04/04 05:24:10;;;;;;;6.57;3.75;;;6.00;59.00;;;;;;5013359;28;20115;-67
2021/04/04 05:26:39;;;;;;;6.53;3.72;;;6.00;58.90;;;;;;5026587;28;20021;-67
2021/04/04 05:29:07;;;;;;;6.53;4.13;;;6.10;58.90;;;;;;5016654;28;20036;-67
2021/04/04 05:31:33;;;;;;;8.32;3.67;;;6.10;58.70;;;;;;5025146;28;20038;-66
2021/04/04 05:34:00;;;;;;;6.95;3.55;;;6.10;58.80;;;;;;5013221;28;20026;-68
2021/04/04 05:36:26;;;;;;;5.68;3.42;;;6.10;58.70;;;;;;5024981;28;20563;-68
2021/04/04 05:38:56;;;;;;;5.90;3.60;;;6.10;58.70;;;;;;5033654;28;20025;-68
2021/04/04 05:41:23;;;;;;;8.35;3.70;;;6.20;58.60;;;;;;5031000;28;20034;-67
2021/04/04 05:43:55;;;;;;;9.18;4.13;;;6.20;58.60;;;;;;5024769;28;20548;-67
2021/04/04 05:46:32;;;;;;;11.82;3.63;;;6.20;58.50;;;;;;4994750;28;20042;-68
2021/04/04 05:49:18;;;;;;;6.03;3.30;;;6.30;58.50;;;;;;5014067;28;20033;-68
2021/04/04 05:52:04;;;;;;;7.75;3.63;;;6.30;58.30;;;;;;5011826;28;20149;-68
2021/04/04 05:55:01;;;;;;;6.20;3.67;;;6.30;58.30;;;;;;5014492;28;20083;-68
2021/04/04 05:57:52;;;;;;;6.97;3.63;;;6.40;58.20;;;;;;5014040;28;20099;-68
2021/04/04 06:00:19;;;;;;;7.15;3.55;;;6.40;58.00;;;;;;5009790;28;20104;-68
2021/04/04 06:03:15;;;;;;;6.95;3.47;;;6.40;57.90;;;;;;5002191;28;20034;-68
2021/04/04 06:06:15;;;;;;;8.10;4.07;;;6.50;57.70;;;;;;5018160;28;20070;-68
2021/04/04 06:09:00;;;;;;;6.43;3.65;;;6.50;57.70;;;;;;4995969;28;20406;-68
2021/04/04 06:12:02;;;;;;;5.68;3.30;;;6.50;57.50;;;;;;5021840;28;20045;-68
2021/04/04 06:15:09;;;;;;;5.65;3.35;;;6.50;57.50;;;;;;5016659;28;20382;-68
2021/04/04 06:17:44;;;;;;;5.47;3.30;;;6.60;57.40;;;;;;4985042;28;20050;-69
2021/04/04 06:20:31;;;;;;;4.97;3.40;;;6.60;57.20;;;;;;5013798;28;20371;-69
2021/04/04 06:23:12;;;;;;;5.20;3.33;;;6.70;57.20;;;;;;5016054;28;20065;-69
2021/04/04 06:25:53;;;;;;;5.88;3.05;;;6.70;57.10;;;;;;5012899;28;20359;-69
2021/04/04 06:28:38;;;;;;;5.30;2.90;;;6.80;57.20;;;;;;4993893;28;20541;-68
2021/04/04 06:31:14;;;;;;;6.63;2.90;;;6.80;57.20;;;;;;4996279;28;20402;-68
2021/04/04 06:33:41;;;;;;;5.63;3.05;;;6.80;57.20;;;;;;5013510;28;20034;-68
2021/04/04 06:36:33;;;;;;;5.47;3.03;;;6.90;57.20;;;;;;5016086;28;20066;-68
2021/04/04 06:39:44;;;;;;;5.80;2.80;;;6.90;57.00;;;;;;5013279;28;20418;-69
2021/04/04 06:42:42;;;;;;;5.90;2.85;;;6.90;56.80;;;;;;5010837;28;20176;-68
2021/04/04 06:45:42;;;;;;;5.10;3.10;;;7.00;56.70;;;;;;5000421;28;20376;-68
2021/04/04 06:48:47;;;;;;;6.13;2.90;;;7.00;56.40;;;;;;4999663;28;20026;-65
2021/04/04 06:51:49;;;;;;;4.73;2.80;;;7.10;56.40;;;;;;4962159;28;20539;-64
2021/04/04 06:54:19;;;;;;;5.82;3.08;;;7.10;56.40;;;;;;5025625;28;20095;-66
2021/04/04 06:57:13;;;;;;;5.80;3.08;;;7.20;56.50;;;;;;5018429;28;20502;-66
2021/04/04 06:59:56;;;;;;;6.00;2.88;;;7.30;56.40;;;;;;5009991;28;20494;-67
2021/04/04 07:02:26;;;;;;;3.90;2.72;;;7.30;56.30;;;;;;5012686;28;20489;-66
2021/04/04 07:05:01;;;;;;;4.53;2.70;;;7.40;56.20;;;;;;5012111;28;20022;-65
2021/04/04 07:07:46;;;;;;;;;;;7.50;56.10;;;;;;5013270;28;20033;-66
2021/04/04 07:10:52;;;;;;;4.93;2.75;;;7.50;56.40;;;;;;5009195;28;20457;-67
2021/04/04 07:13:38;;;;;;;5.13;2.85;;;7.60;56.10;;;;;;4991911;28;20426;-66
2021/04/04 07:16:41;;;;;;;4.95;2.72;;;7.60;56.30;;;;;;5012472;28;20536;-66
2021/04/04 07:19:22;;;;;;;5.53;2.72;;;7.60;56.40;;;;;;5011959;28;20030;-66
2021/04/04 07:21:58;;;;;;;4.13;2.65;;;7.70;56.60;;;;;;5010553;28;20026;-66
2021/04/04 07:25:00;;;;;;;6.00;2.70;;;7.80;56.70;;;;;;5012088;28;20104;-67
2021/04/04 07:27:41;;;;;;;6.07;2.47;;;7.80;56.70;;;;;;5012968;28;20482;-66
2021/04/04 07:30:37;;;;;;;5.38;2.55;;;7.90;56.70;;;;;;5011777;28;20101;-66
2021/04/04 07:33:29;;;;;;;4.50;2.28;;;7.90;56.60;;;;;;5017769;28;20092;-66
2021/04/04 07:36:17;;;;;;;6.00;2.47;;;8.00;56.90;;;;;;5011614;28;20509;-66
2021/04/04 07:39:04;;;;;;;5.47;2.67;;;8.10;56.70;;;;;;5011143;28;20386;-65
2021/04/04 07:41:40;;;;;;;5.60;2.50;;;8.10;56.70;;;;;;5015758;28;20112;-65
2021/04/04 07:44:47;;;;;;;5.97;3.28;;;8.20;56.70;;;;;;4999928;28;20053;-66
2021/04/04 07:47:24;;;;;;;5.75;2.63;;;8.20;56.60;;;;;;4993651;28;20026;-66
2021/04/04 07:49:58;;;;;;;3.83;2.20;;;8.30;56.60;;;;;;5011243;28;20034;-66
2021/04/04 07:53:08;;;;;;;5.03;3.00;;;8.30;56.50;;;;;;5008046;28;20137;-67
2021/04/04 07:55:45;;;;;;;4.47;2.10;;;8.40;56.20;;;;;;4999785;28;20034;-68
2021/04/04 07:58:20;;;;;;;3.63;1.90;;;8.40;55.90;;;;;;4996520;28;20101;-66
2021/04/04 08:01:04;;;;;;;3.78;2.00;;;8.40;55.60;;;;;;5013699;28;20053;-67
2021/04/04 08:04:00;;;;;;;4.05;2.08;;;8.50;55.60;;;;;;5010374;28;20065;-68
2021/04/04 08:06:48;;;;;;;6.47;2.70;;;8.50;55.60;;;;;;5021741;28;20394;-67
2021/04/04 08:09:48;;;;;;;5.53;2.25;;;8.50;55.50;;;;;;4997772;28;20022;-67
2021/04/04 08:12:20;;;;;;;4.60;2.45;;;8.60;55.60;;;;;;5020343;28;20525;-67
2021/04/04 08:15:06;;;;;;;6.07;2.90;;;8.60;55.60;;;;;;5010496;28;20037;-67
2021/04/04 08:17:34;;;;;;;5.57;2.63;;;8.70;56.30;;;;;;5001002;28;20021;-67
2021/04/04 08:20:08;;;;;;;5.82;2.65;;;8.70;56.20;;;;;;5009884;28;20161;-67
2021/04/04 08:22:39;;;;;;;10.73;3.20;;;8.70;56.60;;;;;;5011867;28;20030;-67
2021/04/04 08:25:09;;;;;;;7.20;2.92;;;8.80;57.20;;;;;;5010526;28;20030;-68
2021/04/04 08:27:54;;;;;;;8.55;2.88;;;8.80;57.40;;;;;;5009644;28;20121;-68
2021/04/04 08:30:35;;;;;;;8.20;3.42;;;8.90;57.40;;;;;;5012303;28;20081;-67
2021/04/04 08:33:06;;;;;;;6.85;3.15;;;8.90;57.80;;;;;;5020798;28;20049;-67
2021/04/04 08:35:37;;;;;;;5.65;3.05;;;9.00;57.70;;;;;;5001441;28;20067;-67
2021/04/04 08:38:16;;;;;;;8.48;3.78;;;9.00;57.90;;;;;;5020895;28;20068;-67
2021/04/04 08:40:42;;;;;;;9.50;3.63;;;9.10;57.90;;;;;;5013445;28;20030;-68
2021/04/04 08:43:10;;;;;;;6.30;3.13;;;9.10;58.00;;;;;;5014794;28;20038;-67
2021/04/04 08:45:42;;;;;;;7.65;3.53;;;9.10;58.30;;;;;;5018486;28;20083;-68
2021/04/04 08:48:11;;;;;;;7.10;3.65;;;9.10;58.90;;;;;;5017194;28;20068;-68
2021/04/04 08:50:42;;;;;;;5.93;3.38;;;9.10;58.90;;;;;;5019022;28;20390;-68
2021/04/04 08:53:24;;;;;;;7.97;3.40;;;9.20;59.00;;;;;;5017895;28;20075;-68
2021/04/04 08:55:51;;;;;;;11.88;4.43;;;9.20;58.90;;;;;;5002193;28;20033;-68
2021/04/04 08:58:20;;;;;;;10.60;3.78;;;9.30;58.90;;;;;;5015247;28;20083;-68
2021/04/04 09:00:47;;;;;;;8.57;3.90;;;9.40;59.10;;;;;;5019611;28;20049;-67
2021/04/04 09:03:21;;;;;;;16.30;4.63;;;9.50;59.00;;;;;;5014950;28;20501;-68
2021/04/04 09:05:47;;;;;;;9.57;4.43;;;9.50;59.10;;;;;;5019810;28;20506;-68
2021/04/04 09:08:17;;;;;;;16.67;4.35;;;9.60;59.10;;;;;;5013557;28;20285;-67
2021/04/04 09:10:45;;;;;;;15.55;5.72;;;9.60;59.20;;;;;;5017415;28;20161;-68
2021/04/04 09:13:16;;;;;;;12.05;3.83;;;9.60;59.70;;;;;;5014568;28;20037;-68
2021/04/04 09:15:49;;;;;;;9.57;4.93;;;9.60;59.70;;;;;;5016064;28;20649;-68
2021/04/04 09:18:16;;;;;;;13.10;4.40;;;9.70;59.90;;;;;;5014965;28;20109;-68
2021/04/04 09:20:46;;;;;;;14.80;5.68;;;9.80;60.00;;;;;;5018442;28;20025;-67
2021/04/04 09:23:13;;;;;;;10.32;4.35;;;9.80;60.10;;;;;;5014679;28;20022;-68
2021/04/04 09:25:48;;;;;;;9.10;4.57;;;9.90;60.00;;;;;;5014237;28;20030;-68
2021/04/04 09:28:15;;;;;;;11.63;3.97;;;9.90;59.60;;;;;;4995322;28;20050;-67
2021/04/04 09:30:44;;;;;;;11.77;4.55;;;10.00;59.50;;;;;;5002496;28;20564;-67
2021/04/04 09:33:12;;;;;;;19.52;5.78;;;10.10;59.30;;;;;;5014605;28;20068;-67
2021/04/04 09:35:40;;;;;;;11.18;4.25;;;10.10;59.20;;;;;;4994890;28;20033;-67
2021/04/04 09:38:11;;;;;;;10.95;4.55;;;10.20;59.00;;;;;;5016019;28;20029;-68
2021/04/04 09:40:39;;;;;;;12.45;4.10;;;10.20;58.80;;;;;;5004208;28;20018;-69
2021/04/04 09:43:14;;;;;;;12.88;4.35;;;10.30;58.60;;;;;;5013404;28;20033;-68
2021/04/04 09:45:41;;;;;;;9.13;4.30;;;10.30;58.70;;;;;;5013031;28;20056;-68
2021/04/04 09:48:21;;;;;;;10.35;4.43;;;10.40;58.50;;;;;;5014344;28;20033;-68
2021/04/04 09:50:48;;;;;;;10.00;4.35;;;10.40;58.70;;;;;;5016101;28;20045;-68
2021/04/04 09:53:38;;;;;;;9.57;4.25;;;10.50;58.60;;;;;;5014308;28;20029;-68
2021/04/04 09:56:05;;;;;;;12.82;4.15;;;10.60;58.50;;;;;;5014410;28;20057;-69
2021/04/04 09:58:31;;;;;;;13.88;4.60;;;10.70;58.20;;;;;;5014817;28;20040;-69
2021/04/04 10:00:56;;;;;;;12.88;4.38;;;10.80;58.10;;;;;;5019543;28;20026;-68
2021/04/04 10:03:23;;;;;;;11.65;4.05;;;10.80;57.90;;;;;;5015817;28;20026;-68
2021/04/04 10:05:50;;;;;;;7.55;4.00;;;10.90;58.00;;;;;;5008169;28;20040;-68
2021/04/04 10:08:23;;;;;;;10.65;4.88;;;11.00;58.00;;;;;;5025740;28;20034;-68
2021/04/04 10:10:55;;;;;;;12.32;4.18;;;11.10;58.20;;;;;;5019032;28;20034;-68
2021/04/04 10:13:28;;;;;;;9.73;4.25;;;11.10;58.20;;;;;;5033538;28;20041;-68
2021/04/04 10:15:55;;;;;;;7.85;4.30;;;11.20;57.80;;;;;;5028197;28;20403;-68
2021/04/04 10:18:22;;;;;;;10.85;4.20;;;11.30;57.50;;;;;;5033416;28;20494;-68
2021/04/04 10:20:54;;;;;;;13.40;4.68;;;11.40;57.40;;;;;;5011486;28;20033;-68
2021/04/04 10:23:33;;;;;;;13.18;4.63;;;11.50;57.30;;;;;;5025439;28;20029;-68
2021/04/04 10:26:06;;;;;;;9.40;4.30;;;11.60;57.10;;;;;;5019219;28;20033;-68
2021/04/04 10:28:54;;;;;;;9.43;3.85;;;11.50;56.80;;;;;;5033748;28;20021;-68
2021/04/04 10:31:22;;;;;;;9.05;4.05;;;11.60;57.60;;;;;;5008256;28;20037;-68
2021/04/04 10:34:02;;;;;;;11.80;4.80;;;11.60;56.50;;;;;;5033394;28;20064;-68
2021/04/04 10:36:28;;;;;;;9.82;4.50;;;11.70;56.60;;;;;;5025228;28;20022;-68
2021/04/04 10:38:55;;;;;;;11.75;4.32;;;11.70;56.50;;;;;;5033401;28;20091;-69
2021/04/04 10:41:36;;;;;;;11.88;4.38;;;11.80;56.40;;;;;;5008796;28;20033;-68
2021/04/04 10:44:04;;;;;;;14.07;5.05;;;11.90;56.00;;;;;;5017709;28;20069;-68
2021/04/04 10:46:33;;;;;;;11.10;4.00;;;12.10;56.00;;;;;;5028132;28;20037;-68
2021/04/04 10:49:00;;;;;;;12.35;3.85;;;12.20;56.00;;;;;;5027528;28;20030;-68
2021/04/04 10:51:27;;;;;;;9.93;3.67;;;12.30;55.40;;;;;;5003399;28;20034;-68
2021/04/04 10:53:53;;;;;;;12.77;4.25;;;12.40;54.80;;;;;;5012272;28;20025;-68
2021/04/04 10:56:19;;;;;;;10.43;3.78;;;12.40;54.60;;;;;;5022473;28;20120;-68
2021/04/04 10:58:46;;;;;;;10.18;3.58;;;12.60;54.40;;;;;;5032682;28;20576;-68
2021/04/04 11:01:13;;;;;;;13.70;3.75;;;12.80;54.40;;;;;;5020832;28;20037;-68
2021/04/04 11:03:43;;;;;;;10.88;3.97;;;12.90;54.20;;;;;;5018399;28;20080;-68
2021/04/04 11:06:09;;;;;;;12.15;4.43;;;13.00;54.10;;;;;;5020955;28;20037;-68
2021/04/04 11:08:35;;;;;;;12.30;3.88;;;13.10;53.80;;;;;;5017259;28;20038;-68
2021/04/04 11:11:01;;;;;;;10.60;4.35;;;13.20;53.80;;;;;;5019754;28;20396;-69
2021/04/04 11:13:27;;;;;;;10.68;4.15;;;13.20;53.50;;;;;;5032855;28;20025;-68
2021/04/04 11:15:57;;;;;;;10.00;4.15;;;13.20;53.50;;;;;;5018692;28;20756;-68
2021/04/04 11:18:33;;;;;;;10.05;4.00;;;13.20;53.20;;;;;;5014432;28;20033;-68
2021/04/04 11:21:05;;;;;;;11.35;4.45;;;13.10;53.40;;;;;;5011869;28;20525;-67
2021/04/04 11:23:31;;;;;;;7.07;3.88;;;13.10;53.70;;;;;;5013329;28;20041;-69
2021/04/04 11:25:56;;;;;;;11.57;3.90;;;13.10;53.70;;;;;;4993959;28;20565;-68
2021/04/04 11:28:24;;;;;;;8.50;3.92;;;13.10;53.60;;;;;;5031711;28;20076;-68
2021/04/04 11:30:51;;;;;;;8.30;4.13;;;13.20;54.10;;;;;;5018713;28;20041;-67
2021/04/04 11:33:17;;;;;;;9.23;3.63;;;13.20;53.40;;;;;;5032648;28;20087;-68
2021/04/04 11:36:04;;;;;;;8.93;4.20;;;13.20;53.40;;;;;;5016705;28;20026;-67
2021/04/04 11:38:33;;;;;;;13.93;3.97;;;13.10;53.20;;;;;;5027486;28;20033;-68
2021/04/04 11:41:22;;;;;;;7.10;3.50;;;13.00;53.10;;;;;;5012497;28;20034;-68
2021/04/04 11:44:12;;;;;;;11.20;3.95;;;13.00;53.30;;;;;;5012226;28;20061;-68
2021/04/04 11:46:52;;;;;;;8.85;3.90;;;13.00;53.40;;;;;;5024098;28;20033;-68
2021/04/04 11:49:29;;;;;;;12.93;3.85;;;12.90;53.40;;;;;;5008943;28;20072;-68
2021/04/04 11:52:01;;;;;;;10.18;3.65;;;12.90;53.40;;;;;;5025437;28;20107;-68
2021/04/04 11:54:51;;;;;;;9.52;3.58;;;12.90;53.30;;;;;;5011726;28;20168;-68
2021/04/04 11:57:21;;;;;;;10.60;3.38;;;12.90;53.20;;;;;;5009889;28;20030;-68
2021/04/04 11:59:56;;;;;;;10.35;3.67;;;12.90;52.70;;;;;;5009893;28;20049;-67
2021/04/04 12:02:24;;;;;;;6.35;3.47;;;13.00;52.60;;;;;;5010167;28;20026;-68
2021/04/04 12:04:58;;;;;;;8.77;3.78;;;13.10;52.60;;;;;;5011239;28;20044;-69
2021/04/04 12:07:24;;;;;;;10.30;3.72;;;13.20;52.50;;;;;;5011568;28;20025;-67
2021/04/04 12:09:50;;;;;;;11.93;3.95;;;13.20;52.40;;;;;;5010469;28;20034;-68
2021/04/04 12:12:16;;;;;;;12.05;4.00;;;13.30;52.50;;;;;;5029055;28;20049;-67
2021/04/04 12:14:49;;;;;;;9.95;3.67;;;13.30;52.60;;;;;;5012836;28;20383;-66
2021/04/04 12:17:16;;;;;;;12.77;4.40;;;13.20;52.70;;;;;;5014730;28;20094;-66
2021/04/04 12:19:48;;;;;;;10.07;3.47;;;13.20;53.00;;;;;;5011069;28;20453;-67
2021/04/04 12:22:15;;;;;;;11.07;4.05;;;13.20;52.90;;;;;;5007422;28;20026;-65
2021/04/04 12:24:50;;;;;;;8.20;3.42;;;13.20;52.40;;;;;;5006901;28;20034;-65
2021/04/04 12:27:23;;;;;;;11.73;3.45;;;13.20;52.20;;;;;;5026774;28;20114;-66
2021/04/04 12:29:54;;;;;;;12.43;3.90;;;13.30;52.10;;;;;;4981348;28;20487;-67
2021/04/04 12:32:30;;;;;;;8.85;4.03;;;13.30;51.60;;;;;;5001881;28;20053;-67
2021/04/04 12:35:04;;;;;;;9.20;3.45;;;13.40;51.50;;;;;;5004667;28;20399;-66
2021/04/04 12:37:31;;;;;;;6.15;3.10;;;13.30;51.50;;;;;;5010273;28;20033;-67
2021/04/04 12:40:02;;;;;;;12.95;3.70;;;13.30;51.60;;;;;;5008819;28;20433;-65
2021/04/04 12:42:30;;;;;;;10.18;3.70;;;13.30;51.50;;;;;;4995821;28;20033;-66
2021/04/04 12:44:56;;;;;;;10.95;3.80;;;13.30;51.80;;;;;;5010181;28;20022;-67
2021/04/04 12:47:25;;;;;;;8.38;3.72;;;13.30;51.50;;;;;;5027602;28;20113;-67
2021/04/04 12:50:08;;;;;;;12.63;3.95;;;13.20;51.60;;;;;;5005923;28;20054;-67
2021/04/04 12:52:43;;;;;;;6.97;3.22;;;13.30;51.70;;;;;;5005190;28;20041;-68
2021/04/04 12:55:15;;;;;;;;;;;13.30;51.70;;;;;;5011271;28;20478;-67
2021/04/04 12:57:41;;;;;;;12.10;3.38;;;13.30;52.00;;;;;;5025795;28;20035;-67
2021/04/04 13:00:15;;;;;;;9.02;3.35;;;13.30;51.70;;;;;;5002258;28;20073;-67
2021/04/04 13:02:49;;;;;;;8.20;3.35;;;13.50;51.50;;;;;;5022673;28;20478;-67
2021/04/04 13:05:14;;;;;;;11.52;3.28;;;13.50;51.50;;;;;;5010439;28;20474;-67
2021/04/04 13:07:41;;;;;;;11.57;4.28;;;13.60;51.50;;;;;;5010838;28;20068;-66
2021/04/04 13:10:07;;;;;;;10.50;3.75;;;13.60;51.40;;;;;;5009114;28;20502;-65
2021/04/04 13:12:37;;;;;;;12.60;3.80;;;13.70;51.10;;;;;;5018959;28;20046;-66
2021/04/04 13:15:04;;;;;;;6.95;3.47;;;13.70;50.60;;;;;;5008010;28;20026;-65
2021/04/04 13:17:50;;;;;;;10.45;3.35;;;13.70;50.80;;;;;;5019699;28;20034;-65
2021/04/04 13:20:16;;;;;;;10.38;3.55;;;13.70;51.30;;;;;;5003471;28;20046;-65